Airfield :
LOGIN :

Register | Disclaimer

   EN    FR    IT 

 










Legend :    VFR   Marginal VFR   IFR   Intensive IFR   Very Intensive IFR
Visi :
Ceiling :
>= 8 km
>= 3000ft
5 to 8 km
1000 to 3000 ft
1500m to 5 km
500 to 1000 ft
800 to 1500m
200 to 500 ft
< 800m
< 200 ft
Symbols :   Thunderstorms  Fog  Heavy snow  Heavy precipitations  Wind > 20 kt
SIGMETs :     Misc.  Thunderstorms  Icing  Turbulence  Mountain Waves  Volcanic Ashes







- Airport Elevation : 42 ft
- IATA code : KGD


UMKK - Khrabrava - Kaliningrad

CURRENT METAR :
  • 190830Z 15004MPS 120V180 4100 BR OVC022 M01/M02 Q1027 R24/19//57 NOSIG RMK QFE769/1026

EXPIRED METARs :
  • 190800Z 15004MPS 4100 BR OVC019 M01/M02 Q1027 R24/19//57 NOSIG RMK QFE769/1026
  • 190730Z 15004MPS 4100 BR OVC019 M01/M03 Q1027 R24/19//57 NOSIG RMK QFE769/1026
  • 190700Z 16004MPS 4100 BR OVC017 M01/M03 Q1027 R24/19//57 NOSIG RMK QFE769/1026
  • 190630Z 15004MPS 4100 BR OVC016 M01/M03 Q1027 R24/19//57 NOSIG RMK QFE769/1026
  • 190600Z 15004MPS 4000 BR OVC016 M01/M03 Q1027 R24/19//57 NOSIG RMK QFE769/1026

TAF TAF UMKK
Valid from the 19 at 09:00 until the 20 at 09:00 UTC


190800Z 1909/2009 15005G10MPS 3100 BR OVC011
TEMPO 1909/1912 1100 SN BR BKN003
PROB40
TEMPO 1909/1912 0400 -FZDZ FZFG VV002
BECMG 1912/1914 15007G12MPS
BECMG 1916/1918 6000 NSW
BECMG 2000/2002 13004G09MPS



MET'MAP, your aeronautical weather chart ! - Copyright ORBIFLY December 2007 - Disclaimer

ORBIFLY MET'MAP TEAM :

Programming & Development : Alexandra Zaïnal
Concept & Development : Baudouin d'Aumeries
Co-Development & Prog : Marc-Olivier Méhu
Technical & hardware support : Manuel Goepfert

Contact : metmap@orbifly.com




SOURCES & CREDITS :

   NOAA